createdAt,value
2023-03-07T00:02:00.495Z,0.48
2023-03-07T00:05:14.963Z,0.44
2023-03-07T00:08:27.100Z,0.44
2023-03-07T00:11:39.396Z,0.44
2023-03-07T00:14:51.405Z,0.44
2023-03-07T00:18:03.842Z,0.45
2023-03-07T00:21:18.717Z,0.46
2023-03-07T00:24:31.236Z,0.39
2023-03-07T00:27:43.481Z,0.40
2023-03-07T00:30:55.922Z,0.34
2023-03-07T00:34:09.021Z,0.36
2023-03-07T00:37:21.459Z,0.34
2023-03-07T00:40:33.582Z,0.29
2023-03-07T00:43:47.232Z,0.26
2023-03-07T00:46:59.530Z,0.21
2023-03-07T00:50:13.952Z,0.17
2023-03-07T00:53:26.934Z,0.13
2023-03-07T00:56:39.094Z,0.03
2023-03-07T00:59:51.339Z,-0.01
2023-03-07T01:03:04.329Z,0.00
2023-03-07T01:06:21.053Z,0.02
2023-03-07T01:09:33.154Z,0.07
2023-03-07T01:12:45.370Z,0.04
2023-03-07T01:15:57.789Z,-0.09
2023-03-07T01:19:14.096Z,-0.11
2023-03-07T01:22:26.679Z,-0.12
2023-03-07T01:25:44.071Z,-0.11
2023-03-07T01:28:58.644Z,-0.25
2023-03-07T01:32:11.733Z,-0.14
2023-03-07T01:35:24.517Z,-0.12
2023-03-07T01:38:38.464Z,-0.09
2023-03-07T01:41:52.554Z,-0.03
2023-03-07T01:45:11.836Z,-0.03
2023-03-07T01:48:33.662Z,0.00
2023-03-07T01:51:49.548Z,0.07
2023-03-07T01:55:06.534Z,0.17
2023-03-07T01:58:21.231Z,0.24
2023-03-07T02:01:34.723Z,0.28
2023-03-07T02:04:51.445Z,0.38
2023-03-07T02:08:06.666Z,0.52
2023-03-07T02:11:20.014Z,0.61
2023-03-07T02:14:32.187Z,0.73
2023-03-07T02:17:46.354Z,0.78
2023-03-07T02:21:03.571Z,0.65
2023-03-07T02:24:23.119Z,0.40
2023-03-07T02:27:39.343Z,0.22
2023-03-07T02:31:04.517Z,0.09
2023-03-07T02:34:31.311Z,-0.03
2023-03-07T02:37:56.085Z,-0.02
2023-03-07T02:41:08.853Z,-0.04
2023-03-07T02:44:21.317Z,-0.04
2023-03-07T02:47:34.138Z,0.03
2023-03-07T02:50:46.918Z,0.07
2023-03-07T02:53:59.365Z,0.08
2023-03-07T02:57:12.092Z,0.07
2023-03-07T03:00:26.513Z,0.09
2023-03-07T03:03:39.268Z,0.15
2023-03-07T03:06:51.427Z,0.11
2023-03-07T03:10:03.487Z,0.13
2023-03-07T03:13:16.499Z,0.14
2023-03-07T03:16:28.831Z,0.17
2023-03-07T03:19:41.842Z,0.15
2023-03-07T03:22:57.527Z,0.12
2023-03-07T03:26:14.337Z,0.10
2023-03-07T03:29:26.862Z,0.04
2023-03-07T03:32:43.877Z,-0.02
2023-03-07T03:35:56.117Z,-0.07
2023-03-07T03:39:10.575Z,-0.06
2023-03-07T03:42:24.599Z,-0.09
2023-03-07T03:45:36.650Z,-0.07
2023-03-07T03:48:48.893Z,-0.06
2023-03-07T03:52:01.101Z,-0.02
2023-03-07T03:55:15.358Z,0.00
2023-03-07T03:58:27.569Z,0.05
2023-03-07T04:01:39.860Z,0.10
2023-03-07T04:04:53.102Z,0.14
2023-03-07T04:08:05.756Z,0.17
2023-03-07T04:11:18.836Z,0.18
2023-03-07T04:14:31.713Z,0.25
2023-03-07T04:17:44.282Z,0.27
2023-03-07T04:20:58.109Z,0.31
2023-03-07T04:24:11.139Z,0.36
2023-03-07T04:27:23.461Z,0.41
2023-03-07T04:30:35.574Z,0.46
2023-03-07T04:33:49.675Z,0.50
2023-03-07T04:37:02.100Z,0.54
2023-03-07T04:40:17.755Z,0.59
2023-03-07T04:43:30.326Z,0.64
2023-03-07T04:46:42.542Z,0.73
2023-03-07T04:49:54.638Z,0.84
2023-03-07T04:53:07.674Z,1.02
2023-03-07T04:56:20.895Z,1.26
2023-03-07T04:59:33.102Z,1.40
2023-03-07T05:02:46.745Z,1.48
2023-03-07T05:05:59.455Z,1.52
2023-03-07T05:09:11.784Z,1.57
2023-03-07T05:12:24.905Z,1.64
2023-03-07T05:15:37.900Z,1.67
2023-03-07T05:18:50.847Z,1.69
2023-03-07T05:22:03.619Z,1.69
2023-03-07T05:25:17.352Z,1.73
2023-03-07T05:28:29.792Z,1.80
2023-03-07T05:31:42.133Z,1.85
2023-03-07T05:34:54.753Z,1.86
2023-03-07T05:38:08.278Z,1.90
2023-03-07T05:41:21.516Z,1.95
2023-03-07T05:44:34.339Z,1.99
2023-03-07T05:47:47.775Z,2.02
2023-03-07T05:51:00.106Z,2.07
2023-03-07T05:54:12.798Z,2.10
2023-03-07T05:57:25.216Z,2.15
2023-03-07T06:00:37.720Z,2.20
2023-03-07T06:03:49.869Z,2.25
2023-03-07T06:07:02.250Z,2.31
2023-03-07T06:10:18.117Z,2.34
2023-03-07T06:13:31.745Z,2.36
2023-03-07T06:16:43.997Z,2.40
2023-03-07T06:19:56.701Z,2.42
2023-03-07T06:23:11.397Z,2.49
2023-03-07T06:26:24.495Z,2.53
2023-03-07T06:29:38.185Z,2.64
2023-03-07T06:32:50.441Z,2.81
2023-03-07T06:36:03.007Z,2.96
2023-03-07T06:39:17.294Z,3.06
2023-03-07T06:42:29.539Z,3.27
2023-03-07T06:45:43.017Z,3.32
2023-03-07T06:48:56.529Z,3.68
2023-03-07T06:52:09.519Z,3.81
2023-03-07T06:55:22.343Z,3.99
2023-03-07T06:58:36.083Z,4.26
2023-03-07T07:01:49.340Z,4.52
2023-03-07T07:05:03.306Z,4.86
2023-03-07T07:08:15.726Z,4.97
2023-03-07T07:11:28.403Z,5.11
2023-03-07T07:17:42.234Z,5.24
2023-03-07T07:21:00.834Z,5.59
2023-03-07T07:24:17.991Z,5.68
2023-03-07T07:27:31.329Z,6.32
2023-03-07T07:33:46.605Z,6.51
2023-03-07T07:37:02.373Z,6.73
2023-03-07T07:40:17.831Z,6.90
2023-03-07T07:49:32.264Z,7.19
2023-03-07T07:52:45.147Z,7.04
2023-03-07T07:55:57.581Z,6.83
2023-03-07T07:59:10.312Z,7.03
2023-03-07T08:02:22.791Z,7.08
2023-03-07T08:05:35.105Z,6.95
2023-03-07T08:08:48.347Z,6.74
2023-03-07T08:12:00.579Z,6.70
2023-03-07T08:15:17.059Z,6.58
2023-03-07T08:18:29.347Z,6.67
2023-03-07T08:21:41.420Z,7.00
2023-03-07T08:24:53.800Z,6.92
2023-03-07T08:28:06.106Z,7.14
2023-03-07T08:31:20.710Z,7.18
2023-03-07T08:34:33.527Z,7.08
2023-03-07T08:37:45.604Z,7.06
2023-03-07T08:40:58.361Z,7.28
2023-03-07T08:44:10.831Z,7.31
2023-03-07T08:47:22.983Z,7.36
2023-03-07T08:50:36.256Z,7.47
2023-03-07T08:53:49.082Z,7.33
2023-03-07T08:57:01.292Z,7.31
2023-03-07T09:00:17.925Z,7.61
2023-03-07T09:03:30.417Z,7.26
2023-03-07T09:06:42.373Z,7.36
2023-03-07T09:09:54.717Z,7.39
2023-03-07T09:13:07.343Z,7.44
2023-03-07T09:16:19.553Z,7.53
2023-03-07T09:19:32.083Z,7.29
2023-03-07T09:22:44.253Z,7.11
2023-03-07T09:28:56.483Z,7.14
2023-03-07T09:32:10.612Z,7.20
2023-03-07T09:35:23.203Z,7.79
2023-03-07T09:38:35.226Z,8.20
2023-03-07T09:42:21.362Z,8.03
2023-03-07T09:46:00.720Z,8.02
2023-03-07T09:49:30.060Z,7.82
2023-03-07T09:52:46.110Z,8.21
2023-03-07T09:56:00.841Z,8.76
2023-03-07T09:59:23.941Z,8.82
2023-03-07T10:02:41.126Z,8.97
2023-03-07T10:05:56.955Z,9.07
2023-03-07T10:09:11.950Z,8.21
2023-03-07T10:12:52.607Z,7.90
2023-03-07T10:16:10.538Z,7.76
2023-03-07T10:19:32.482Z,7.60
2023-03-07T10:22:50.712Z,7.20
2023-03-07T10:26:09.467Z,7.21
2023-03-07T10:29:26.649Z,7.10
2023-03-07T10:32:43.750Z,7.10
2023-03-07T10:36:01.571Z,7.01
2023-03-07T10:39:27.860Z,7.10
2023-03-07T10:42:43.001Z,7.14
2023-03-07T10:45:54.940Z,7.13
2023-03-07T10:49:17.954Z,7.18
2023-03-07T10:52:42.860Z,6.86
2023-03-07T10:55:56.823Z,6.88
2023-03-07T10:59:14.672Z,6.71
2023-03-07T11:02:48.864Z,6.66
2023-03-07T11:06:01.978Z,6.68
2023-03-07T11:09:33.672Z,6.56
2023-03-07T11:12:51.772Z,6.55
2023-03-07T11:16:25.938Z,6.65
2023-03-07T11:19:47.937Z,6.65
2023-03-07T11:23:23.519Z,6.82
2023-03-07T11:26:44.541Z,7.00
2023-03-07T11:30:25.246Z,6.91
2023-03-07T11:33:59.052Z,7.08
2023-03-07T11:37:24.113Z,7.40
2023-03-07T11:40:43.502Z,7.93
2023-03-07T11:44:10.030Z,7.88
2023-03-07T11:47:37.318Z,8.07
2023-03-07T11:50:57.376Z,7.71
2023-03-07T11:54:19.572Z,7.77
2023-03-07T11:57:42.183Z,8.02
2023-03-07T12:01:09.841Z,7.78
2023-03-07T12:05:18.072Z,7.38
2023-03-07T12:08:44.827Z,7.30
2023-03-07T12:12:16.060Z,7.39
2023-03-07T12:15:40.100Z,7.38
2023-03-07T12:19:08.850Z,7.41
2023-03-07T12:22:34.516Z,7.53
2023-03-07T12:25:49.519Z,7.62
2023-03-07T12:29:06.184Z,7.68
2023-03-07T12:32:24.393Z,7.69
2023-03-07T12:35:45.942Z,7.56
2023-03-07T12:39:03.556Z,7.52
2023-03-07T12:42:22.355Z,7.41
2023-03-07T12:45:38.788Z,7.48
2023-03-07T12:48:57.922Z,7.42
2023-03-07T12:52:17.251Z,7.49
2023-03-07T12:55:34.278Z,7.47
2023-03-07T12:58:51.817Z,7.52
2023-03-07T13:02:08.809Z,7.48
2023-03-07T13:05:27.864Z,7.32
2023-03-07T13:08:40.668Z,7.43
2023-03-07T13:12:43.488Z,7.54
2023-03-07T13:16:11.398Z,7.45
2023-03-07T13:20:00.759Z,7.51
2023-03-07T13:23:31.554Z,7.68
2023-03-07T13:26:44.024Z,7.61
2023-03-07T13:30:25.635Z,7.57
2023-03-07T13:33:37.849Z,7.58
2023-03-07T13:36:50.231Z,7.59
2023-03-07T13:40:10.512Z,7.68
2023-03-07T13:44:00.102Z,7.85
2023-03-07T13:47:31.395Z,7.95
2023-03-07T13:51:12.389Z,7.86
2023-03-07T13:54:26.280Z,7.79
2023-03-07T13:57:45.347Z,7.76
2023-03-07T14:01:04.480Z,7.71
2023-03-07T14:04:37.105Z,7.45
2023-03-07T14:07:41.325Z,7.42
2023-03-07T14:10:54.813Z,7.32
2023-03-07T14:14:42.723Z,7.38
2023-03-07T14:18:10.465Z,7.36
2023-03-07T14:21:31.687Z,7.32
2023-03-07T14:25:04.989Z,7.32
2023-03-07T14:28:30.123Z,7.32
2023-03-07T14:31:47.815Z,7.35
2023-03-07T14:35:00.822Z,7.27
2023-03-07T14:38:21.151Z,7.38
2023-03-07T14:41:46.185Z,7.47
2023-03-07T14:45:33.208Z,7.49
2023-03-07T14:49:17.469Z,7.46
2023-03-07T14:52:31.878Z,7.37
2023-03-07T14:55:48.923Z,7.29
2023-03-07T14:59:04.056Z,7.29
2023-03-07T15:02:24.311Z,7.29
2023-03-07T15:05:39.389Z,7.28
2023-03-07T15:08:52.883Z,7.20
2023-03-07T15:12:12.632Z,7.20
2023-03-07T15:15:38.322Z,7.21
2023-03-07T15:18:55.517Z,7.18
2023-03-07T15:22:11.764Z,7.11
2023-03-07T15:25:28.772Z,7.15
2023-03-07T15:28:44.810Z,7.16
2023-03-07T15:32:04.154Z,7.13
2023-03-07T15:35:23.967Z,7.18
2023-03-07T15:41:41.146Z,7.20
2023-03-07T15:47:53.290Z,7.15
2023-03-07T15:51:08.582Z,7.13
2023-03-07T15:54:32.272Z,7.06
2023-03-07T15:57:54.441Z,6.98
2023-03-07T16:01:21.827Z,6.92
2023-03-07T16:04:44.628Z,6.82
2023-03-07T16:07:59.959Z,6.68
2023-03-07T16:11:15.011Z,6.70
2023-03-07T16:14:32.037Z,6.64
2023-03-07T16:17:45.641Z,6.60
2023-03-07T16:20:57.851Z,6.59
2023-03-07T16:24:10.671Z,6.55
2023-03-07T16:27:26.002Z,6.51
2023-03-07T16:30:40.417Z,6.45
2023-03-07T16:33:54.543Z,6.40
2023-03-07T16:37:07.340Z,6.38
2023-03-07T16:40:22.866Z,6.35
2023-03-07T16:43:43.032Z,6.31
2023-03-07T16:47:00.411Z,6.28
2023-03-07T16:50:19.765Z,6.22
2023-03-07T16:53:31.841Z,6.20
2023-03-07T16:56:48.313Z,6.20
2023-03-07T17:00:00.522Z,6.13
2023-03-07T17:03:15.205Z,6.10
2023-03-07T17:06:38.515Z,6.09
2023-03-07T17:09:41.669Z,6.04
2023-03-07T17:12:55.130Z,5.98
2023-03-07T17:16:07.273Z,5.91
2023-03-07T17:19:30.066Z,5.85
2023-03-07T17:22:42.862Z,5.73
2023-03-07T17:25:55.604Z,5.66
2023-03-07T17:29:11.867Z,5.58
2023-03-07T17:32:24.818Z,5.52
2023-03-07T17:35:37.026Z,5.47
2023-03-07T17:38:49.565Z,5.43
2023-03-07T17:42:01.987Z,5.41
2023-03-07T17:45:17.541Z,5.41
2023-03-07T17:48:30.657Z,5.43
2023-03-07T17:51:42.792Z,5.45
2023-03-07T17:54:55.312Z,5.42
2023-03-07T17:58:08.083Z,5.42
2023-03-07T18:01:20.556Z,5.44
2023-03-07T18:04:32.946Z,5.43
2023-03-07T18:07:45.509Z,5.43
2023-03-07T18:10:57.763Z,5.44
2023-03-07T18:14:11.514Z,5.42
2023-03-07T18:17:24.105Z,5.42
2023-03-07T18:20:36.750Z,5.40
2023-03-07T18:23:49.294Z,5.40
2023-03-07T18:27:03.388Z,5.40
2023-03-07T18:30:19.570Z,5.41
2023-03-07T18:33:32.433Z,5.41
2023-03-07T18:36:48.125Z,5.41
2023-03-07T18:40:00.453Z,5.37
2023-03-07T18:43:13.102Z,5.38
2023-03-07T18:46:30.086Z,5.41
2023-03-07T18:49:42.700Z,5.40
2023-03-07T18:52:55.018Z,5.37
2023-03-07T18:56:11.765Z,5.37
2023-03-07T18:59:24.651Z,5.38
2023-03-07T19:02:37.210Z,5.34
2023-03-07T19:05:54.766Z,5.35
2023-03-07T19:09:07.716Z,5.35
2023-03-07T19:12:20.206Z,5.34
2023-03-07T19:15:32.505Z,5.37
2023-03-07T19:18:45.748Z,5.39
2023-03-07T19:21:57.961Z,5.42
2023-03-07T19:25:12.653Z,5.44
2023-03-07T19:28:25.058Z,5.45
2023-03-07T19:31:38.755Z,5.47
2023-03-07T19:34:55.564Z,5.50
2023-03-07T19:38:07.874Z,5.49
2023-03-07T19:41:23.278Z,5.50
2023-03-07T19:44:35.482Z,5.52
2023-03-07T19:47:47.828Z,5.53
2023-03-07T19:51:00.776Z,5.56
2023-03-07T19:54:13.693Z,5.58
2023-03-07T19:57:25.945Z,5.57
2023-03-07T20:00:38.166Z,5.58
2023-03-07T20:03:51.005Z,5.59
2023-03-07T20:07:03.290Z,5.58
2023-03-07T20:10:17.838Z,5.57
2023-03-07T20:13:30.046Z,5.58
2023-03-07T20:16:42.960Z,5.57
2023-03-07T20:19:58.330Z,5.59
2023-03-07T20:23:10.563Z,5.58
2023-03-07T20:26:26.216Z,5.60
2023-03-07T20:29:38.531Z,5.61
2023-03-07T20:32:51.075Z,5.61
2023-03-07T20:36:12.635Z,5.61
2023-03-07T20:39:24.952Z,5.62
2023-03-07T20:42:39.424Z,5.61
2023-03-07T20:45:51.467Z,5.57
2023-03-07T20:49:05.477Z,5.56
2023-03-07T20:52:17.695Z,5.55
2023-03-07T20:55:29.670Z,5.55
2023-03-07T20:58:43.063Z,5.54
2023-03-07T21:01:55.755Z,5.54
2023-03-07T21:05:08.963Z,5.53
2023-03-07T21:08:21.008Z,5.52
2023-03-07T21:11:33.541Z,5.51
2023-03-07T21:14:46.325Z,5.51
2023-03-07T21:17:58.514Z,5.51
2023-03-07T21:21:13.235Z,5.51
2023-03-07T21:24:25.293Z,5.51
2023-03-07T21:27:37.641Z,5.49
2023-03-07T21:30:50.122Z,5.51
2023-03-07T21:34:05.164Z,5.52
2023-03-07T21:37:17.538Z,5.50
2023-03-07T21:40:29.931Z,5.53
2023-03-07T21:43:42.522Z,5.53
2023-03-07T21:46:54.658Z,5.55
2023-03-07T21:50:07.015Z,5.57
2023-03-07T21:53:19.332Z,5.55
2023-03-07T21:56:31.536Z,5.56
2023-03-07T21:59:43.730Z,5.57
2023-03-07T22:02:55.783Z,5.51
2023-03-07T22:06:13.460Z,5.63
2023-03-07T22:09:25.638Z,5.63
2023-03-07T22:12:37.948Z,5.65
2023-03-07T22:15:49.958Z,5.61
2023-03-07T22:19:03.592Z,5.62
2023-03-07T22:22:15.620Z,5.61
2023-03-07T22:25:27.855Z,5.57
2023-03-07T22:28:41.200Z,5.57
2023-03-07T22:31:53.469Z,5.57
2023-03-07T22:35:05.651Z,5.54
2023-03-07T22:38:19.316Z,5.55
2023-03-07T22:41:32.213Z,5.54
2023-03-07T22:44:44.493Z,5.53
2023-03-07T22:47:56.645Z,5.50
2023-03-07T22:51:09.434Z,5.53
2023-03-07T22:54:21.640Z,5.55
2023-03-07T22:57:34.486Z,5.56
2023-03-07T23:00:48.895Z,5.57
2023-03-07T23:04:04.021Z,5.58
2023-03-07T23:07:16.723Z,5.44
2023-03-07T23:10:28.906Z,5.58
2023-03-07T23:13:41.596Z,5.58
2023-03-07T23:16:54.063Z,5.57
2023-03-07T23:20:06.083Z,5.55
2023-03-07T23:23:18.396Z,5.55
2023-03-07T23:26:33.888Z,5.53
2023-03-07T23:29:46.048Z,5.56
2023-03-07T23:32:59.995Z,5.56
2023-03-07T23:36:14.131Z,5.56
2023-03-07T23:39:26.163Z,5.54
2023-03-07T23:42:38.541Z,5.53
2023-03-07T23:45:50.592Z,5.52
2023-03-07T23:49:03.909Z,5.63
2023-03-07T23:52:16.447Z,5.87
2023-03-07T23:55:28.762Z,5.92
2023-03-07T23:58:42.163Z,5.98
